sensor_id;sensor_type;location;lat;lon;timestamp;P1;durP1;ratioP1;P2;durP2;ratioP2
59042;SDS011;44826;51.596;5.624;2022-07-23T00:00:30;6.28;;;4.90;;
59042;SDS011;44826;51.596;5.624;2022-07-23T00:02:55;4.82;;;4.35;;
59042;SDS011;44826;51.596;5.624;2022-07-23T00:05:20;6.63;;;4.70;;
59042;SDS011;44826;51.596;5.624;2022-07-23T00:07:46;4.60;;;2.60;;
59042;SDS011;44826;51.596;5.624;2022-07-23T00:10:11;3.28;;;2.30;;
59042;SDS011;44826;51.596;5.624;2022-07-23T00:12:36;4.57;;;2.80;;
59042;SDS011;44826;51.596;5.624;2022-07-23T00:15:03;5.35;;;2.85;;
59042;SDS011;44826;51.596;5.624;2022-07-23T00:17:29;4.57;;;2.50;;
59042;SDS011;44826;51.596;5.624;2022-07-23T00:19:55;4.25;;;2.75;;
59042;SDS011;44826;51.596;5.624;2022-07-23T00:22:20;3.85;;;2.60;;
59042;SDS011;44826;51.596;5.624;2022-07-23T00:24:45;4.85;;;3.00;;
59042;SDS011;44826;51.596;5.624;2022-07-23T00:27:11;4.30;;;2.88;;
59042;SDS011;44826;51.596;5.624;2022-07-23T00:29:36;4.15;;;2.72;;
59042;SDS011;44826;51.596;5.624;2022-07-23T00:32:01;4.72;;;2.80;;
59042;SDS011;44826;51.596;5.624;2022-07-23T00:34:27;3.40;;;2.50;;
59042;SDS011;44826;51.596;5.624;2022-07-23T00:36:52;4.50;;;2.63;;
59042;SDS011;44826;51.596;5.624;2022-07-23T00:39:19;4.07;;;2.70;;
59042;SDS011;44826;51.596;5.624;2022-07-23T00:41:46;3.72;;;2.38;;
59042;SDS011;44826;51.596;5.624;2022-07-23T00:44:25;4.32;;;2.53;;
59042;SDS011;44826;51.596;5.624;2022-07-23T00:46:56;3.53;;;2.58;;
59042;SDS011;44826;51.596;5.624;2022-07-23T00:49:23;5.22;;;2.60;;
59042;SDS011;44826;51.596;5.624;2022-07-23T00:51:50;6.00;;;2.60;;
59042;SDS011;44826;51.596;5.624;2022-07-23T00:54:16;4.63;;;2.70;;
59042;SDS011;44826;51.596;5.624;2022-07-23T00:56:43;4.18;;;2.55;;
59042;SDS011;44826;51.596;5.624;2022-07-23T00:59:09;4.43;;;2.58;;
59042;SDS011;44826;51.596;5.624;2022-07-23T01:01:34;4.15;;;2.47;;
59042;SDS011;44826;51.596;5.624;2022-07-23T01:04:00;7.38;;;2.65;;
59042;SDS011;44826;51.596;5.624;2022-07-23T01:06:25;4.18;;;2.40;;
59042;SDS011;44826;51.596;5.624;2022-07-23T01:08:51;4.72;;;2.67;;
59042;SDS011;44826;51.596;5.624;2022-07-23T01:11:17;3.40;;;2.60;;
59042;SDS011;44826;51.596;5.624;2022-07-23T01:13:43;4.65;;;2.50;;
59042;SDS011;44826;51.596;5.624;2022-07-23T01:16:08;4.32;;;2.72;;
59042;SDS011;44826;51.596;5.624;2022-07-23T01:18:34;4.40;;;3.00;;
59042;SDS011;44826;51.596;5.624;2022-07-23T01:20:59;4.75;;;2.80;;
59042;SDS011;44826;51.596;5.624;2022-07-23T01:23:24;3.38;;;2.72;;
59042;SDS011;44826;51.596;5.624;2022-07-23T01:25:53;4.07;;;2.78;;
59042;SDS011;44826;51.596;5.624;2022-07-23T01:28:19;4.90;;;3.03;;
59042;SDS011;44826;51.596;5.624;2022-07-23T01:30:45;5.88;;;2.97;;
59042;SDS011;44826;51.596;5.624;2022-07-23T01:33:10;4.25;;;2.80;;
59042;SDS011;44826;51.596;5.624;2022-07-23T01:35:36;4.20;;;2.90;;
59042;SDS011;44826;51.596;5.624;2022-07-23T01:38:01;4.93;;;3.15;;
59042;SDS011;44826;51.596;5.624;2022-07-23T01:40:26;5.60;;;3.17;;
59042;SDS011;44826;51.596;5.624;2022-07-23T01:42:52;3.92;;;3.20;;
59042;SDS011;44826;51.596;5.624;2022-07-23T01:45:17;4.10;;;2.95;;
59042;SDS011;44826;51.596;5.624;2022-07-23T01:47:42;4.43;;;2.88;;
59042;SDS011;44826;51.596;5.624;2022-07-23T01:50:08;4.85;;;2.65;;
59042;SDS011;44826;51.596;5.624;2022-07-23T01:52:33;4.88;;;2.78;;
59042;SDS011;44826;51.596;5.624;2022-07-23T01:54:59;3.38;;;2.90;;
59042;SDS011;44826;51.596;5.624;2022-07-23T01:57:24;4.55;;;2.90;;
59042;SDS011;44826;51.596;5.624;2022-07-23T01:59:49;5.13;;;3.05;;
59042;SDS011;44826;51.596;5.624;2022-07-23T02:02:14;3.50;;;2.83;;
59042;SDS011;44826;51.596;5.624;2022-07-23T02:04:40;5.35;;;2.90;;
59042;SDS011;44826;51.596;5.624;2022-07-23T02:07:05;3.65;;;2.80;;
59042;SDS011;44826;51.596;5.624;2022-07-23T02:09:31;5.40;;;3.10;;
59042;SDS011;44826;51.596;5.624;2022-07-23T02:11:57;4.40;;;3.15;;
59042;SDS011;44826;51.596;5.624;2022-07-23T02:14:22;5.13;;;3.28;;
59042;SDS011;44826;51.596;5.624;2022-07-23T02:16:48;4.93;;;3.20;;
59042;SDS011;44826;51.596;5.624;2022-07-23T02:19:13;4.03;;;2.70;;
59042;SDS011;44826;51.596;5.624;2022-07-23T02:21:38;3.28;;;2.63;;
59042;SDS011;44826;51.596;5.624;2022-07-23T02:24:04;5.00;;;3.03;;
59042;SDS011;44826;51.596;5.624;2022-07-23T02:26:29;4.10;;;2.90;;
59042;SDS011;44826;51.596;5.624;2022-07-23T02:28:57;3.30;;;2.97;;
59042;SDS011;44826;51.596;5.624;2022-07-23T02:31:22;4.90;;;3.33;;
59042;SDS011;44826;51.596;5.624;2022-07-23T02:33:48;4.38;;;3.17;;
59042;SDS011;44826;51.596;5.624;2022-07-23T02:36:13;4.40;;;3.42;;
59042;SDS011;44826;51.596;5.624;2022-07-23T02:38:38;4.40;;;3.42;;
59042;SDS011;44826;51.596;5.624;2022-07-23T02:41:04;5.97;;;2.97;;
59042;SDS011;44826;51.596;5.624;2022-07-23T02:43:29;4.43;;;2.90;;
59042;SDS011;44826;51.596;5.624;2022-07-23T02:45:54;4.30;;;3.00;;
59042;SDS011;44826;51.596;5.624;2022-07-23T02:48:19;3.53;;;2.90;;
59042;SDS011;44826;51.596;5.624;2022-07-23T02:50:45;3.17;;;2.42;;
59042;SDS011;44826;51.596;5.624;2022-07-23T02:53:10;2.80;;;2.22;;
59042;SDS011;44826;51.596;5.624;2022-07-23T02:55:35;3.70;;;2.80;;
59042;SDS011;44826;51.596;5.624;2022-07-23T02:58:01;13.88;;;3.35;;
59042;SDS011;44826;51.596;5.624;2022-07-23T03:00:26;4.47;;;3.10;;
59042;SDS011;44826;51.596;5.624;2022-07-23T03:02:51;5.32;;;3.10;;
59042;SDS011;44826;51.596;5.624;2022-07-23T03:05:16;4.07;;;3.10;;
59042;SDS011;44826;51.596;5.624;2022-07-23T03:07:42;5.30;;;2.90;;
59042;SDS011;44826;51.596;5.624;2022-07-23T03:10:07;3.72;;;2.83;;
59042;SDS011;44826;51.596;5.624;2022-07-23T03:12:33;4.38;;;2.90;;
59042;SDS011;44826;51.596;5.624;2022-07-23T03:14:58;4.65;;;3.33;;
59042;SDS011;44826;51.596;5.624;2022-07-23T03:17:23;6.43;;;2.88;;
59042;SDS011;44826;51.596;5.624;2022-07-23T03:19:49;3.85;;;3.08;;
59042;SDS011;44826;51.596;5.624;2022-07-23T03:22:14;4.22;;;2.85;;
59042;SDS011;44826;51.596;5.624;2022-07-23T03:24:39;4.45;;;2.75;;
59042;SDS011;44826;51.596;5.624;2022-07-23T03:27:20;4.85;;;2.72;;
59042;SDS011;44826;51.596;5.624;2022-07-23T03:29:46;5.30;;;2.58;;
59042;SDS011;44826;51.596;5.624;2022-07-23T03:32:11;3.58;;;2.75;;
59042;SDS011;44826;51.596;5.624;2022-07-23T03:34:38;4.63;;;2.88;;
59042;SDS011;44826;51.596;5.624;2022-07-23T03:37:03;4.82;;;3.25;;
59042;SDS011;44826;51.596;5.624;2022-07-23T03:39:29;4.82;;;3.30;;
59042;SDS011;44826;51.596;5.624;2022-07-23T03:41:54;5.90;;;3.30;;
59042;SDS011;44826;51.596;5.624;2022-07-23T03:44:20;4.53;;;3.17;;
59042;SDS011;44826;51.596;5.624;2022-07-23T03:46:45;5.13;;;3.30;;
59042;SDS011;44826;51.596;5.624;2022-07-23T03:49:10;3.67;;;2.80;;
59042;SDS011;44826;51.596;5.624;2022-07-23T03:51:35;4.10;;;3.30;;
59042;SDS011;44826;51.596;5.624;2022-07-23T03:54:01;4.60;;;3.10;;
59042;SDS011;44826;51.596;5.624;2022-07-23T03:56:26;6.00;;;3.10;;
59042;SDS011;44826;51.596;5.624;2022-07-23T03:58:51;4.93;;;3.08;;
59042;SDS011;44826;51.596;5.624;2022-07-23T04:01:17;5.60;;;3.20;;
59042;SDS011;44826;51.596;5.624;2022-07-23T04:03:42;6.18;;;3.05;;
59042;SDS011;44826;51.596;5.624;2022-07-23T04:06:07;6.47;;;2.90;;
59042;SDS011;44826;51.596;5.624;2022-07-23T04:08:33;4.45;;;3.10;;
59042;SDS011;44826;51.596;5.624;2022-07-23T04:10:58;3.88;;;2.80;;
59042;SDS011;44826;51.596;5.624;2022-07-23T04:13:23;4.00;;;3.10;;
59042;SDS011;44826;51.596;5.624;2022-07-23T04:15:48;4.07;;;2.88;;
59042;SDS011;44826;51.596;5.624;2022-07-23T04:18:15;4.93;;;3.30;;
59042;SDS011;44826;51.596;5.624;2022-07-23T04:20:46;4.00;;;3.10;;
59042;SDS011;44826;51.596;5.624;2022-07-23T04:23:12;5.05;;;3.45;;
59042;SDS011;44826;51.596;5.624;2022-07-23T04:25:37;4.65;;;3.55;;
59042;SDS011;44826;51.596;5.624;2022-07-23T04:28:03;5.32;;;3.53;;
59042;SDS011;44826;51.596;5.624;2022-07-23T04:30:28;5.75;;;3.53;;
59042;SDS011;44826;51.596;5.624;2022-07-23T04:32:53;5.05;;;3.80;;
59042;SDS011;44826;51.596;5.624;2022-07-23T04:35:19;5.40;;;3.90;;
59042;SDS011;44826;51.596;5.624;2022-07-23T04:37:44;5.78;;;3.58;;
59042;SDS011;44826;51.596;5.624;2022-07-23T04:40:10;4.78;;;3.42;;
59042;SDS011;44826;51.596;5.624;2022-07-23T04:42:36;8.98;;;3.78;;
59042;SDS011;44826;51.596;5.624;2022-07-23T04:45:01;4.60;;;3.70;;
59042;SDS011;44826;51.596;5.624;2022-07-23T04:47:28;4.78;;;3.30;;
59042;SDS011;44826;51.596;5.624;2022-07-23T04:49:54;5.38;;;3.88;;
59042;SDS011;44826;51.596;5.624;2022-07-23T04:52:19;4.68;;;3.45;;
59042;SDS011;44826;51.596;5.624;2022-07-23T04:54:44;5.68;;;3.63;;
59042;SDS011;44826;51.596;5.624;2022-07-23T04:57:10;4.30;;;3.60;;
59042;SDS011;44826;51.596;5.624;2022-07-23T04:59:35;6.55;;;3.83;;
59042;SDS011;44826;51.596;5.624;2022-07-23T05:02:00;5.30;;;3.53;;
59042;SDS011;44826;51.596;5.624;2022-07-23T05:04:26;5.45;;;4.03;;
59042;SDS011;44826;51.596;5.624;2022-07-23T05:06:51;5.70;;;3.90;;
59042;SDS011;44826;51.596;5.624;2022-07-23T05:09:16;5.90;;;4.07;;
59042;SDS011;44826;51.596;5.624;2022-07-23T05:11:41;5.20;;;3.78;;
59042;SDS011;44826;51.596;5.624;2022-07-23T05:14:07;6.38;;;4.70;;
59042;SDS011;44826;51.596;5.624;2022-07-23T05:16:32;5.03;;;4.13;;
59042;SDS011;44826;51.596;5.624;2022-07-23T05:18:57;6.57;;;4.63;;
59042;SDS011;44826;51.596;5.624;2022-07-23T05:21:22;4.47;;;4.03;;
59042;SDS011;44826;51.596;5.624;2022-07-23T05:23:48;6.47;;;4.30;;
59042;SDS011;44826;51.596;5.624;2022-07-23T05:26:13;5.85;;;4.70;;
59042;SDS011;44826;51.596;5.624;2022-07-23T05:28:38;6.25;;;4.47;;
59042;SDS011;44826;51.596;5.624;2022-07-23T05:31:04;6.03;;;4.40;;
59042;SDS011;44826;51.596;5.624;2022-07-23T05:33:29;6.68;;;4.68;;
59042;SDS011;44826;51.596;5.624;2022-07-23T05:35:59;6.20;;;4.63;;
59042;SDS011;44826;51.596;5.624;2022-07-23T05:38:28;6.07;;;4.60;;
59042;SDS011;44826;51.596;5.624;2022-07-23T05:40:54;6.45;;;4.38;;
59042;SDS011;44826;51.596;5.624;2022-07-23T05:43:19;5.80;;;4.60;;
59042;SDS011;44826;51.596;5.624;2022-07-23T05:45:45;6.40;;;4.32;;
59042;SDS011;44826;51.596;5.624;2022-07-23T05:48:10;5.15;;;4.50;;
59042;SDS011;44826;51.596;5.624;2022-07-23T05:50:35;6.55;;;4.88;;
59042;SDS011;44826;51.596;5.624;2022-07-23T05:53:00;5.68;;;4.47;;
59042;SDS011;44826;51.596;5.624;2022-07-23T05:55:26;5.72;;;4.63;;
59042;SDS011;44826;51.596;5.624;2022-07-23T05:57:54;6.75;;;4.47;;
59042;SDS011;44826;51.596;5.624;2022-07-23T06:00:20;6.13;;;4.57;;
59042;SDS011;44826;51.596;5.624;2022-07-23T06:02:45;5.68;;;4.30;;
59042;SDS011;44826;51.596;5.624;2022-07-23T06:05:10;5.95;;;4.15;;
59042;SDS011;44826;51.596;5.624;2022-07-23T06:07:36;5.53;;;3.92;;
59042;SDS011;44826;51.596;5.624;2022-07-23T06:10:01;6.00;;;4.20;;
59042;SDS011;44826;51.596;5.624;2022-07-23T06:12:28;4.95;;;3.95;;
59042;SDS011;44826;51.596;5.624;2022-07-23T06:14:54;5.60;;;4.10;;
59042;SDS011;44826;51.596;5.624;2022-07-23T06:17:19;6.43;;;3.90;;
59042;SDS011;44826;51.596;5.624;2022-07-23T06:19:44;7.18;;;4.20;;
59042;SDS011;44826;51.596;5.624;2022-07-23T06:22:10;6.28;;;4.15;;
59042;SDS011;44826;51.596;5.624;2022-07-23T06:24:35;5.95;;;4.05;;
59042;SDS011;44826;51.596;5.624;2022-07-23T06:27:00;7.53;;;3.65;;
59042;SDS011;44826;51.596;5.624;2022-07-23T06:29:26;4.72;;;3.85;;
59042;SDS011;44826;51.596;5.624;2022-07-23T06:31:51;4.70;;;3.63;;
59042;SDS011;44826;51.596;5.624;2022-07-23T06:34:16;5.03;;;3.75;;
59042;SDS011;44826;51.596;5.624;2022-07-23T06:36:41;5.80;;;4.05;;
59042;SDS011;44826;51.596;5.624;2022-07-23T06:39:07;5.07;;;3.58;;
59042;SDS011;44826;51.596;5.624;2022-07-23T06:41:32;5.25;;;3.88;;
59042;SDS011;44826;51.596;5.624;2022-07-23T06:43:57;4.90;;;3.65;;
59042;SDS011;44826;51.596;5.624;2022-07-23T06:46:22;5.00;;;3.47;;
59042;SDS011;44826;51.596;5.624;2022-07-23T06:48:48;4.50;;;3.60;;
59042;SDS011;44826;51.596;5.624;2022-07-23T06:51:13;6.43;;;3.97;;
59042;SDS011;44826;51.596;5.624;2022-07-23T06:53:38;5.47;;;4.30;;
59042;SDS011;44826;51.596;5.624;2022-07-23T06:56:04;7.75;;;4.10;;
59042;SDS011;44826;51.596;5.624;2022-07-23T06:58:29;5.50;;;4.00;;
59042;SDS011;44826;51.596;5.624;2022-07-23T07:00:54;5.28;;;3.70;;
59042;SDS011;44826;51.596;5.624;2022-07-23T07:03:21;6.82;;;3.78;;
59042;SDS011;44826;51.596;5.624;2022-07-23T07:05:47;7.05;;;4.05;;
59042;SDS011;44826;51.596;5.624;2022-07-23T07:08:12;4.70;;;3.50;;
59042;SDS011;44826;51.596;5.624;2022-07-23T07:10:37;5.30;;;3.63;;
59042;SDS011;44826;51.596;5.624;2022-07-23T07:13:03;5.68;;;3.85;;
59042;SDS011;44826;51.596;5.624;2022-07-23T07:15:28;5.75;;;4.10;;
59042;SDS011;44826;51.596;5.624;2022-07-23T07:17:53;4.85;;;3.83;;
59042;SDS011;44826;51.596;5.624;2022-07-23T07:20:19;5.43;;;3.95;;
59042;SDS011;44826;51.596;5.624;2022-07-23T07:22:44;4.55;;;3.40;;
59042;SDS011;44826;51.596;5.624;2022-07-23T07:25:09;4.60;;;3.17;;
59042;SDS011;44826;51.596;5.624;2022-07-23T07:27:35;4.50;;;3.38;;
59042;SDS011;44826;51.596;5.624;2022-07-23T07:30:00;6.07;;;3.22;;
59042;SDS011;44826;51.596;5.624;2022-07-23T07:32:26;6.20;;;3.00;;
59042;SDS011;44826;51.596;5.624;2022-07-23T07:34:51;4.75;;;3.20;;
59042;SDS011;44826;51.596;5.624;2022-07-23T07:37:16;4.95;;;3.33;;
59042;SDS011;44826;51.596;5.624;2022-07-23T07:39:42;4.50;;;2.90;;
59042;SDS011;44826;51.596;5.624;2022-07-23T07:42:07;4.35;;;2.83;;
59042;SDS011;44826;51.596;5.624;2022-07-23T07:44:32;3.20;;;2.60;;
59042;SDS011;44826;51.596;5.624;2022-07-23T07:46:58;5.00;;;2.85;;
59042;SDS011;44826;51.596;5.624;2022-07-23T07:49:23;3.60;;;2.55;;
59042;SDS011;44826;51.596;5.624;2022-07-23T07:51:48;4.18;;;2.72;;
59042;SDS011;44826;51.596;5.624;2022-07-23T07:54:14;4.38;;;2.80;;
59042;SDS011;44826;51.596;5.624;2022-07-23T07:56:39;4.35;;;3.00;;
59042;SDS011;44826;51.596;5.624;2022-07-23T07:59:05;5.15;;;2.80;;
59042;SDS011;44826;51.596;5.624;2022-07-23T08:01:30;3.38;;;2.45;;
59042;SDS011;44826;51.596;5.624;2022-07-23T08:03:56;4.63;;;2.95;;
59042;SDS011;44826;51.596;5.624;2022-07-23T08:06:21;5.03;;;2.88;;
59042;SDS011;44826;51.596;5.624;2022-07-23T08:08:47;4.32;;;2.97;;
59042;SDS011;44826;51.596;5.624;2022-07-23T08:11:12;4.50;;;2.50;;
59042;SDS011;44826;51.596;5.624;2022-07-23T08:13:38;3.50;;;2.30;;
59042;SDS011;44826;51.596;5.624;2022-07-23T08:16:03;6.70;;;2.50;;
59042;SDS011;44826;51.596;5.624;2022-07-23T08:18:29;3.22;;;2.50;;
59042;SDS011;44826;51.596;5.624;2022-07-23T08:20:54;3.13;;;2.40;;
59042;SDS011;44826;51.596;5.624;2022-07-23T08:23:19;3.53;;;2.67;;
59042;SDS011;44826;51.596;5.624;2022-07-23T08:25:45;4.63;;;2.95;;
59042;SDS011;44826;51.596;5.624;2022-07-23T08:28:12;4.32;;;2.60;;
59042;SDS011;44826;51.596;5.624;2022-07-23T08:30:38;5.70;;;2.97;;
59042;SDS011;44826;51.596;5.624;2022-07-23T08:33:06;4.85;;;2.75;;
59042;SDS011;44826;51.596;5.624;2022-07-23T08:35:33;4.13;;;2.67;;
59042;SDS011;44826;51.596;5.624;2022-07-23T08:38:00;3.38;;;2.47;;
59042;SDS011;44826;51.596;5.624;2022-07-23T08:40:28;4.30;;;2.70;;
59042;SDS011;44826;51.596;5.624;2022-07-23T08:42:55;5.35;;;3.30;;
59042;SDS011;44826;51.596;5.624;2022-07-23T08:45:22;4.13;;;2.55;;
59042;SDS011;44826;51.596;5.624;2022-07-23T08:47:55;4.90;;;2.40;;
59042;SDS011;44826;51.596;5.624;2022-07-23T08:50:23;3.97;;;2.42;;
59042;SDS011;44826;51.596;5.624;2022-07-23T08:52:49;4.13;;;2.33;;
59042;SDS011;44826;51.596;5.624;2022-07-23T08:55:16;3.63;;;2.60;;
59042;SDS011;44826;51.596;5.624;2022-07-23T08:57:43;3.75;;;2.55;;
59042;SDS011;44826;51.596;5.624;2022-07-23T09:00:08;4.30;;;2.75;;
59042;SDS011;44826;51.596;5.624;2022-07-23T09:02:44;3.25;;;2.17;;
59042;SDS011;44826;51.596;5.624;2022-07-23T09:05:10;3.67;;;2.67;;
59042;SDS011;44826;51.596;5.624;2022-07-23T09:07:37;4.45;;;2.40;;
59042;SDS011;44826;51.596;5.624;2022-07-23T09:10:23;3.58;;;2.15;;
59042;SDS011;44826;51.596;5.624;2022-07-23T09:12:48;3.03;;;2.25;;
59042;SDS011;44826;51.596;5.624;2022-07-23T09:15:13;3.80;;;2.22;;
59042;SDS011;44826;51.596;5.624;2022-07-23T09:17:40;3.75;;;2.13;;
59042;SDS011;44826;51.596;5.624;2022-07-23T09:20:14;2.42;;;2.13;;
59042;SDS011;44826;51.596;5.624;2022-07-23T09:22:45;4.75;;;2.13;;
59042;SDS011;44826;51.596;5.624;2022-07-23T09:27:50;3.63;;;1.90;;
59042;SDS011;44826;51.596;5.624;2022-07-23T09:30:21;3.88;;;2.13;;
59042;SDS011;44826;51.596;5.624;2022-07-23T09:33:04;2.63;;;2.00;;
59042;SDS011;44826;51.596;5.624;2022-07-23T09:35:45;2.55;;;1.80;;
59042;SDS011;44826;51.596;5.624;2022-07-23T09:38:21;2.55;;;1.90;;
59042;SDS011;44826;51.596;5.624;2022-07-23T09:41:07;4.00;;;2.20;;
59042;SDS011;44826;51.596;5.624;2022-07-23T09:43:33;4.30;;;2.10;;
59042;SDS011;44826;51.596;5.624;2022-07-23T09:48:42;3.50;;;1.95;;
59042;SDS011;44826;51.596;5.624;2022-07-23T09:51:07;2.78;;;1.60;;
59042;SDS011;44826;51.596;5.624;2022-07-23T09:53:32;4.72;;;2.30;;
59042;SDS011;44826;51.596;5.624;2022-07-23T09:55:58;4.78;;;2.20;;
59042;SDS011;44826;51.596;5.624;2022-07-23T09:58:25;3.35;;;2.35;;
59042;SDS011;44826;51.596;5.624;2022-07-23T10:00:53;3.33;;;2.25;;
59042;SDS011;44826;51.596;5.624;2022-07-23T10:03:20;3.67;;;2.03;;
59042;SDS011;44826;51.596;5.624;2022-07-23T10:05:45;4.03;;;2.20;;
59042;SDS011;44826;51.596;5.624;2022-07-23T10:08:13;3.35;;;2.22;;
59042;SDS011;44826;51.596;5.624;2022-07-23T10:10:41;3.03;;;2.00;;
59042;SDS011;44826;51.596;5.624;2022-07-23T10:13:06;2.88;;;2.03;;
59042;SDS011;44826;51.596;5.624;2022-07-23T10:15:51;3.80;;;1.98;;
59042;SDS011;44826;51.596;5.624;2022-07-23T10:18:17;3.13;;;2.00;;
59042;SDS011;44826;51.596;5.624;2022-07-23T10:20:42;2.45;;;1.85;;
59042;SDS011;44826;51.596;5.624;2022-07-23T10:23:15;3.35;;;2.03;;
59042;SDS011;44826;51.596;5.624;2022-07-23T10:26:02;3.95;;;2.53;;
59042;SDS011;44826;51.596;5.624;2022-07-23T10:28:47;3.30;;;2.20;;
59042;SDS011;44826;51.596;5.624;2022-07-23T10:31:28;3.45;;;2.33;;
59042;SDS011;44826;51.596;5.624;2022-07-23T10:40:15;4.55;;;2.30;;
59042;SDS011;44826;51.596;5.624;2022-07-23T10:42:46;3.53;;;2.50;;
59042;SDS011;44826;51.596;5.624;2022-07-23T10:45:26;3.65;;;2.67;;
59042;SDS011;44826;51.596;5.624;2022-07-23T10:48:11;4.60;;;2.53;;
59042;SDS011;44826;51.596;5.624;2022-07-23T10:50:39;3.50;;;2.20;;
59042;SDS011;44826;51.596;5.624;2022-07-23T10:53:12;3.45;;;2.40;;
59042;SDS011;44826;51.596;5.624;2022-07-23T10:55:51;3.42;;;2.00;;
59042;SDS011;44826;51.596;5.624;2022-07-23T10:58:21;2.30;;;2.03;;
59042;SDS011;44826;51.596;5.624;2022-07-23T11:00:48;3.17;;;2.10;;
59042;SDS011;44826;51.596;5.624;2022-07-23T11:03:33;4.80;;;2.30;;
59042;SDS011;44826;51.596;5.624;2022-07-23T11:06:03;3.35;;;2.10;;
59042;SDS011;44826;51.596;5.624;2022-07-23T11:08:30;2.88;;;1.98;;
59042;SDS011;44826;51.596;5.624;2022-07-23T11:13:28;2.60;;;2.10;;
59042;SDS011;44826;51.596;5.624;2022-07-23T11:23:59;3.58;;;2.25;;
59042;SDS011;44826;51.596;5.624;2022-07-23T11:31:56;3.42;;;2.58;;
59042;SDS011;44826;51.596;5.624;2022-07-23T11:34:28;3.67;;;2.50;;
59042;SDS011;44826;51.596;5.624;2022-07-23T11:36:58;3.15;;;2.35;;
59042;SDS011;44826;51.596;5.624;2022-07-23T11:39:25;3.10;;;2.40;;
59042;SDS011;44826;51.596;5.624;2022-07-23T11:41:52;3.47;;;2.60;;
59042;SDS011;44826;51.596;5.624;2022-07-23T11:47:13;5.22;;;3.00;;
59042;SDS011;44826;51.596;5.624;2022-07-23T11:49:38;5.03;;;3.40;;
59042;SDS011;44826;51.596;5.624;2022-07-23T11:52:16;4.75;;;3.30;;
59042;SDS011;44826;51.596;5.624;2022-07-23T11:54:48;5.22;;;3.35;;
59042;SDS011;44826;51.596;5.624;2022-07-23T11:57:14;4.20;;;2.90;;
59042;SDS011;44826;51.596;5.624;2022-07-23T11:59:39;4.30;;;3.05;;
59042;SDS011;44826;51.596;5.624;2022-07-23T12:02:06;5.20;;;3.25;;
59042;SDS011;44826;51.596;5.624;2022-07-23T12:04:41;4.40;;;2.95;;
59042;SDS011;44826;51.596;5.624;2022-07-23T12:07:23;3.50;;;2.47;;
59042;SDS011;44826;51.596;5.624;2022-07-23T12:09:49;2.85;;;2.30;;
59042;SDS011;44826;51.596;5.624;2022-07-23T12:12:14;2.65;;;1.95;;
59042;SDS011;44826;51.596;5.624;2022-07-23T12:14:53;2.67;;;2.13;;
59042;SDS011;44826;51.596;5.624;2022-07-23T12:17:22;3.47;;;2.30;;
59042;SDS011;44826;51.596;5.624;2022-07-23T12:19:53;3.22;;;2.08;;
59042;SDS011;44826;51.596;5.624;2022-07-23T12:22:19;2.88;;;2.35;;
59042;SDS011;44826;51.596;5.624;2022-07-23T12:24:57;3.30;;;2.13;;
59042;SDS011;44826;51.596;5.624;2022-07-23T12:27:23;3.42;;;1.92;;
59042;SDS011;44826;51.596;5.624;2022-07-23T12:29:49;3.65;;;1.80;;
59042;SDS011;44826;51.596;5.624;2022-07-23T12:32:24;3.95;;;1.90;;
59042;SDS011;44826;51.596;5.624;2022-07-23T12:35:07;3.25;;;1.90;;
59042;SDS011;44826;51.596;5.624;2022-07-23T12:37:34;2.88;;;1.77;;
59042;SDS011;44826;51.596;5.624;2022-07-23T12:42:48;2.08;;;1.70;;
59042;SDS011;44826;51.596;5.624;2022-07-23T12:45:21;2.38;;;1.55;;
59042;SDS011;44826;51.596;5.624;2022-07-23T12:47:54;2.85;;;2.00;;
59042;SDS011;44826;51.596;5.624;2022-07-23T12:56:14;3.42;;;2.50;;
59042;SDS011;44826;51.596;5.624;2022-07-23T12:58:41;3.70;;;2.22;;
59042;SDS011;44826;51.596;5.624;2022-07-23T13:06:27;3.83;;;2.55;;
59042;SDS011;44826;51.596;5.624;2022-07-23T13:08:54;3.80;;;2.42;;
59042;SDS011;44826;51.596;5.624;2022-07-23T13:11:20;3.03;;;2.35;;
59042;SDS011;44826;51.596;5.624;2022-07-23T13:13:45;2.97;;;2.08;;
59042;SDS011;44826;51.596;5.624;2022-07-23T13:16:10;3.47;;;2.03;;
59042;SDS011;44826;51.596;5.624;2022-07-23T13:18:36;3.33;;;2.30;;
59042;SDS011;44826;51.596;5.624;2022-07-23T13:21:01;7.72;;;2.60;;
59042;SDS011;44826;51.596;5.624;2022-07-23T13:23:27;4.03;;;2.42;;
59042;SDS011;44826;51.596;5.624;2022-07-23T13:25:52;3.35;;;2.50;;
59042;SDS011;44826;51.596;5.624;2022-07-23T13:28:19;4.68;;;2.35;;
59042;SDS011;44826;51.596;5.624;2022-07-23T13:30:46;3.13;;;2.35;;
59042;SDS011;44826;51.596;5.624;2022-07-23T13:33:14;3.05;;;1.92;;
59042;SDS011;44826;51.596;5.624;2022-07-23T13:35:40;2.55;;;1.70;;
59042;SDS011;44826;51.596;5.624;2022-07-23T13:38:06;2.47;;;2.00;;
59042;SDS011;44826;51.596;5.624;2022-07-23T13:40:35;2.83;;;2.08;;
59042;SDS011;44826;51.596;5.624;2022-07-23T13:43:03;3.70;;;2.25;;
59042;SDS011;44826;51.596;5.624;2022-07-23T13:45:30;3.17;;;2.10;;
59042;SDS011;44826;51.596;5.624;2022-07-23T13:47:56;2.92;;;2.25;;
59042;SDS011;44826;51.596;5.624;2022-07-23T13:50:21;3.80;;;2.10;;
59042;SDS011;44826;51.596;5.624;2022-07-23T13:52:46;4.97;;;2.15;;
59042;SDS011;44826;51.596;5.624;2022-07-23T13:55:11;3.15;;;2.22;;
59042;SDS011;44826;51.596;5.624;2022-07-23T13:57:37;4.35;;;2.20;;
59042;SDS011;44826;51.596;5.624;2022-07-23T14:00:03;3.20;;;2.13;;
59042;SDS011;44826;51.596;5.624;2022-07-23T14:02:31;3.20;;;2.10;;
59042;SDS011;44826;51.596;5.624;2022-07-23T14:04:57;2.80;;;2.03;;
59042;SDS011;44826;51.596;5.624;2022-07-23T14:07:22;3.78;;;2.38;;
59042;SDS011;44826;51.596;5.624;2022-07-23T14:09:47;4.45;;;2.50;;
59042;SDS011;44826;51.596;5.624;2022-07-23T14:12:13;3.88;;;2.38;;
59042;SDS011;44826;51.596;5.624;2022-07-23T14:14:38;3.85;;;2.50;;
59042;SDS011;44826;51.596;5.624;2022-07-23T14:17:03;2.92;;;2.33;;
59042;SDS011;44826;51.596;5.624;2022-07-23T14:19:29;3.45;;;2.50;;
59042;SDS011;44826;51.596;5.624;2022-07-23T14:21:54;3.50;;;2.45;;
59042;SDS011;44826;51.596;5.624;2022-07-23T14:24:19;4.00;;;2.80;;
59042;SDS011;44826;51.596;5.624;2022-07-23T14:26:45;3.45;;;2.40;;
59042;SDS011;44826;51.596;5.624;2022-07-23T14:29:11;3.75;;;2.20;;
59042;SDS011;44826;51.596;5.624;2022-07-23T14:31:36;3.75;;;2.28;;
59042;SDS011;44826;51.596;5.624;2022-07-23T14:34:02;3.15;;;2.25;;
59042;SDS011;44826;51.596;5.624;2022-07-23T14:36:27;3.13;;;2.10;;
59042;SDS011;44826;51.596;5.624;2022-07-23T14:38:52;3.60;;;2.08;;
59042;SDS011;44826;51.596;5.624;2022-07-23T14:41:18;3.72;;;2.38;;
59042;SDS011;44826;51.596;5.624;2022-07-23T14:43:43;2.85;;;1.95;;
59042;SDS011;44826;51.596;5.624;2022-07-23T14:46:09;4.40;;;2.25;;
59042;SDS011;44826;51.596;5.624;2022-07-23T14:48:35;2.85;;;1.90;;
59042;SDS011;44826;51.596;5.624;2022-07-23T14:51:01;3.17;;;2.08;;
59042;SDS011;44826;51.596;5.624;2022-07-23T14:53:27;2.33;;;1.92;;
59042;SDS011;44826;51.596;5.624;2022-07-23T14:55:52;2.67;;;2.08;;
59042;SDS011;44826;51.596;5.624;2022-07-23T14:58:18;2.88;;;2.00;;
59042;SDS011;44826;51.596;5.624;2022-07-23T15:00:43;3.03;;;1.80;;
59042;SDS011;44826;51.596;5.624;2022-07-23T15:03:08;2.75;;;1.85;;
59042;SDS011;44826;51.596;5.624;2022-07-23T15:05:34;4.28;;;2.20;;
59042;SDS011;44826;51.596;5.624;2022-07-23T15:07:59;2.42;;;2.00;;
59042;SDS011;44826;51.596;5.624;2022-07-23T15:10:24;7.60;;;3.30;;
59042;SDS011;44826;51.596;5.624;2022-07-23T15:12:50;8.10;;;3.15;;
59042;SDS011;44826;51.596;5.624;2022-07-23T15:15:15;5.50;;;2.85;;
59042;SDS011;44826;51.596;5.624;2022-07-23T15:17:40;10.77;;;4.97;;
59042;SDS011;44826;51.596;5.624;2022-07-23T15:20:06;8.95;;;3.65;;
59042;SDS011;44826;51.596;5.624;2022-07-23T15:22:32;3.75;;;2.35;;
59042;SDS011;44826;51.596;5.624;2022-07-23T15:24:58;3.83;;;2.50;;
59042;SDS011;44826;51.596;5.624;2022-07-23T15:27:23;8.23;;;3.13;;
59042;SDS011;44826;51.596;5.624;2022-07-23T15:29:48;5.00;;;2.40;;